Terminal Aerodrome Forecast
Issued by NWS

Home | Current Version | Previous Version | Text Only | Print | Product List | Glossary On
Versions: 1 2 3 4 5 6 7 8 9 10 11 12 13 14 15 16
000
FTAK31 PAFA 192327
TAFAGA
TAF
PAGA 192327Z 2000/2024 13006KT P6SM OVC027
     FM200700 13006KT 5SM -SHSN BKN015 OVC025
     FM202200 13008KT P6SM SCT015 BKN025 OVC050=

USA.gov is the U.S. government's official web portal to all federal, state and local government web resources and services.